createdAt,value
2022-08-14T00:01:54.478Z,78.50
2022-08-14T00:04:35.730Z,78.38
2022-08-14T00:07:10.644Z,78.56
2022-08-14T00:09:56.066Z,77.41
2022-08-14T00:12:33.670Z,76.98
2022-08-14T00:15:29.864Z,76.07
2022-08-14T00:18:05.728Z,76.85
2022-08-14T00:20:43.013Z,77.08
2022-08-14T00:23:16.506Z,76.54
2022-08-14T00:25:58.844Z,76.75
2022-08-14T00:28:35.395Z,77.36
2022-08-14T00:31:02.926Z,77.40
2022-08-14T00:33:52.166Z,76.92
2022-08-14T00:36:39.043Z,78.02
2022-08-14T00:39:12.477Z,78.13
2022-08-14T00:41:39.451Z,76.87
2022-08-14T00:44:09.361Z,77.11
2022-08-14T00:46:38.007Z,76.37
2022-08-14T00:49:08.166Z,74.43
2022-08-14T00:51:38.751Z,75.05
2022-08-14T00:54:16.691Z,76.12
2022-08-14T00:56:51.653Z,74.39
2022-08-14T00:59:26.602Z,73.96
2022-08-14T01:01:55.995Z,78.71
2022-08-14T01:04:37.963Z,77.81
2022-08-14T01:07:11.862Z,76.02
2022-08-14T01:09:41.676Z,75.77
2022-08-14T01:12:09.394Z,74.98
2022-08-14T01:14:37.275Z,74.76
2022-08-14T01:17:04.283Z,74.96
2022-08-14T01:19:49.560Z,74.63
2022-08-14T01:22:18.799Z,75.38
2022-08-14T01:24:46.254Z,77.45
2022-08-14T01:27:22.386Z,79.90
2022-08-14T01:29:59.468Z,78.88
2022-08-14T01:32:35.402Z,77.15
2022-08-14T01:35:20.190Z,76.41
2022-08-14T01:37:57.171Z,76.20
2022-08-14T01:40:36.534Z,76.26
2022-08-14T01:43:15.816Z,75.31
2022-08-14T01:45:48.938Z,75.34
2022-08-14T01:48:25.765Z,74.87
2022-08-14T01:50:52.579Z,74.52
2022-08-14T01:53:20.511Z,74.79
2022-08-14T01:55:51.640Z,75.54
2022-08-14T01:58:28.552Z,75.87
2022-08-14T02:00:57.045Z,76.36
2022-08-14T02:03:30.062Z,75.55
2022-08-14T02:06:03.972Z,74.66
2022-08-14T02:08:53.234Z,73.90
2022-08-14T02:11:22.641Z,73.77
2022-08-14T02:14:07.477Z,74.61
2022-08-14T02:16:40.475Z,75.73
2022-08-14T02:19:14.018Z,74.81
2022-08-14T02:21:46.890Z,74.94
2022-08-14T02:24:39.154Z,76.27
2022-08-14T02:28:22.114Z,76.83
2022-08-14T02:29:56.130Z,75.19
2022-08-14T02:32:30.575Z,75.70
2022-08-14T02:35:10.380Z,80.33
2022-08-14T02:37:46.428Z,82.39
2022-08-14T02:40:15.668Z,79.81
2022-08-14T02:42:55.269Z,79.30
2022-08-14T02:45:33.186Z,79.18
2022-08-14T02:48:10.529Z,77.95
2022-08-14T02:50:53.739Z,76.96
2022-08-14T02:53:20.525Z,76.06
2022-08-14T02:55:47.296Z,75.72
2022-08-14T02:58:21.411Z,74.78
2022-08-14T03:00:58.387Z,75.73
2022-08-14T03:03:26.098Z,76.39
2022-08-14T03:05:54.350Z,75.81
2022-08-14T03:08:22.457Z,76.43
2022-08-14T03:10:50.090Z,75.39
2022-08-14T03:13:21.424Z,74.09
2022-08-14T03:15:56.067Z,72.81
2022-08-14T03:18:31.754Z,72.47
2022-08-14T03:21:06.044Z,72.21
2022-08-14T03:23:36.434Z,71.00
2022-08-14T03:26:12.933Z,70.71
2022-08-14T03:28:48.500Z,73.11
2022-08-14T03:31:15.990Z,73.31
2022-08-14T03:33:44.143Z,72.26
2022-08-14T03:37:39.445Z,74.23
2022-08-14T03:39:11.640Z,74.80
2022-08-14T03:41:43.180Z,72.76
2022-08-14T03:45:26.419Z,74.90
2022-08-14T03:46:56.884Z,73.37
2022-08-14T03:49:29.236Z,71.96
2022-08-14T03:51:58.305Z,72.84
2022-08-14T03:54:28.304Z,73.37
2022-08-14T03:56:56.019Z,72.85
2022-08-14T03:59:22.656Z,74.04
2022-08-14T04:02:01.310Z,74.33
2022-08-14T04:04:30.659Z,73.62
2022-08-14T04:06:59.426Z,73.74
2022-08-14T04:09:27.268Z,73.11
2022-08-14T04:11:56.102Z,72.95
2022-08-14T04:14:24.627Z,72.44
2022-08-14T04:16:51.306Z,71.27
2022-08-14T04:19:20.617Z,71.74
2022-08-14T04:22:02.426Z,71.87
2022-08-14T04:24:38.981Z,71.54
2022-08-14T04:27:09.602Z,71.90
2022-08-14T04:29:42.504Z,69.76
2022-08-14T04:32:57.641Z,69.98
2022-08-14T04:34:57.743Z,69.71
2022-08-14T04:37:45.087Z,69.92
2022-08-14T04:40:32.300Z,71.12
2022-08-14T04:43:18.130Z,72.43
2022-08-14T04:45:51.007Z,72.71
2022-08-14T04:48:38.738Z,72.71
2022-08-14T04:51:15.505Z,71.10
2022-08-14T04:53:44.817Z,70.47
2022-08-14T04:56:31.457Z,70.44
2022-08-14T04:59:10.019Z,71.25
2022-08-14T05:01:49.802Z,70.65
2022-08-14T05:04:20.198Z,70.52
2022-08-14T05:06:49.253Z,70.58
2022-08-14T05:09:16.312Z,71.32
2022-08-14T05:11:44.726Z,71.85
2022-08-14T05:14:33.170Z,72.65
2022-08-14T05:17:01.849Z,70.54
2022-08-14T05:19:32.086Z,70.76
2022-08-14T05:22:16.623Z,70.94
2022-08-14T05:24:51.363Z,70.70
2022-08-14T05:27:23.004Z,71.01
2022-08-14T05:29:57.151Z,71.80
2022-08-14T05:32:27.407Z,71.53
2022-08-14T05:34:58.504Z,70.51
2022-08-14T05:37:27.268Z,69.95
2022-08-14T05:39:55.214Z,68.93
2022-08-14T05:42:29.277Z,70.31
2022-08-14T05:44:58.818Z,70.01
2022-08-14T05:47:28.936Z,69.57
2022-08-14T05:50:09.699Z,70.92
2022-08-14T05:52:51.091Z,70.86
2022-08-14T05:55:22.163Z,70.90
2022-08-14T05:58:00.623Z,70.45
2022-08-14T06:00:38.588Z,68.73
2022-08-14T06:03:11.766Z,69.63
2022-08-14T06:05:39.121Z,68.80
2022-08-14T06:08:31.391Z,71.15
2022-08-14T06:11:03.719Z,70.71
2022-08-14T06:13:45.304Z,70.64
2022-08-14T06:16:15.213Z,70.66
2022-08-14T06:18:48.315Z,70.66
2022-08-14T06:21:15.929Z,69.87
2022-08-14T06:23:44.452Z,71.49
2022-08-14T06:26:15.522Z,69.75
2022-08-14T06:28:45.594Z,69.35
2022-08-14T06:31:12.397Z,68.69
2022-08-14T06:35:01.478Z,69.66
2022-08-14T06:36:26.055Z,72.94
2022-08-14T06:38:54.328Z,70.21
2022-08-14T06:41:35.995Z,69.26
2022-08-14T06:44:09.729Z,69.25
2022-08-14T06:46:37.785Z,70.67
2022-08-14T06:49:04.634Z,70.86
2022-08-14T06:51:44.387Z,71.89
2022-08-14T06:54:12.641Z,70.83
2022-08-14T06:56:40.379Z,69.90
2022-08-14T06:59:19.546Z,71.44
2022-08-14T07:02:05.495Z,69.44
2022-08-14T07:04:52.523Z,68.44
2022-08-14T07:07:19.376Z,68.36
2022-08-14T07:09:50.901Z,67.55
2022-08-14T07:12:54.438Z,67.69
2022-08-14T07:15:06.326Z,66.69
2022-08-14T07:17:34.437Z,69.45
2022-08-14T07:20:04.179Z,68.24
2022-08-14T07:22:32.860Z,66.91
2022-08-14T07:25:16.991Z,66.70
2022-08-14T07:27:43.860Z,68.66
2022-08-14T07:30:34.781Z,68.22
2022-08-14T07:33:03.565Z,69.11
2022-08-14T07:35:43.002Z,68.70
2022-08-14T07:38:20.745Z,70.40
2022-08-14T07:40:53.091Z,68.96
2022-08-14T07:43:21.334Z,68.59
2022-08-14T07:45:50.698Z,67.91
2022-08-14T07:48:19.462Z,65.84
2022-08-14T07:50:52.623Z,66.66
2022-08-14T07:53:22.496Z,67.54
2022-08-14T07:56:00.333Z,66.63
2022-08-14T07:58:38.657Z,66.80
2022-08-14T08:01:18.946Z,65.03
2022-08-14T08:03:51.924Z,66.40
2022-08-14T08:06:26.326Z,65.31
2022-08-14T08:09:01.252Z,68.53
2022-08-14T08:11:35.023Z,67.74
2022-08-14T08:14:10.876Z,68.71
2022-08-14T08:16:47.457Z,68.27
2022-08-14T08:19:19.127Z,69.81
2022-08-14T08:21:47.116Z,68.83
2022-08-14T08:24:18.328Z,66.37
2022-08-14T08:26:45.282Z,67.37
2022-08-14T08:29:20.153Z,69.30
2022-08-14T08:31:52.581Z,67.00
2022-08-14T08:34:24.151Z,65.55
2022-08-14T08:36:51.662Z,66.20
2022-08-14T08:39:22.645Z,67.67
2022-08-14T08:41:50.700Z,66.29
2022-08-14T08:44:32.522Z,65.57
2022-08-14T08:47:05.653Z,64.13
2022-08-14T08:49:59.260Z,65.55
2022-08-14T08:52:32.297Z,67.53
2022-08-14T08:55:01.242Z,65.29
2022-08-14T08:57:35.951Z,65.10
2022-08-14T09:00:24.576Z,63.77
2022-08-14T09:02:57.759Z,63.20
2022-08-14T09:05:25.180Z,67.21
2022-08-14T09:07:56.277Z,67.89
2022-08-14T09:10:23.578Z,65.01
2022-08-14T09:12:56.241Z,65.52
2022-08-14T09:15:24.123Z,63.62
2022-08-14T09:17:52.009Z,62.58
2022-08-14T09:20:25.781Z,62.40
2022-08-14T09:22:56.739Z,61.78
2022-08-14T09:25:59.971Z,61.68
2022-08-14T09:28:11.228Z,61.84
2022-08-14T09:30:43.235Z,61.94
2022-08-14T09:33:55.947Z,62.11
2022-08-14T09:36:26.430Z,63.18
2022-08-14T09:39:05.543Z,62.14
2022-08-14T09:42:20.943Z,61.09
2022-08-14T09:44:39.791Z,61.54
2022-08-14T09:47:10.688Z,61.97
2022-08-14T09:49:42.824Z,66.63
2022-08-14T09:52:33.038Z,63.63
2022-08-14T09:55:02.855Z,61.04
2022-08-14T09:57:31.470Z,59.57
2022-08-14T10:00:22.539Z,60.42
2022-08-14T10:03:05.088Z,60.40
2022-08-14T10:05:38.057Z,61.03
2022-08-14T10:08:25.306Z,60.42
2022-08-14T10:10:57.135Z,60.41
2022-08-14T10:13:43.183Z,60.52
2022-08-14T10:16:25.965Z,60.46
2022-08-14T10:19:04.555Z,59.84
2022-08-14T10:21:38.918Z,59.17
2022-08-14T10:24:36.978Z,58.27
2022-08-14T10:27:04.866Z,59.30
2022-08-14T10:29:37.820Z,59.39
2022-08-14T10:32:17.870Z,59.13
2022-08-14T10:34:52.766Z,58.63
2022-08-14T10:37:23.157Z,59.90
2022-08-14T10:40:05.802Z,59.28
2022-08-14T10:42:47.924Z,58.34
2022-08-14T10:45:30.424Z,58.33
2022-08-14T10:48:07.468Z,59.30
2022-08-14T10:50:51.410Z,57.92
2022-08-14T10:53:56.729Z,56.93
2022-08-14T10:56:34.981Z,56.82
2022-08-14T10:59:08.513Z,56.54
2022-08-14T11:01:41.243Z,56.46
2022-08-14T11:04:25.062Z,58.47
2022-08-14T11:06:53.946Z,56.30
2022-08-14T11:09:21.252Z,55.48
2022-08-14T11:11:56.560Z,54.60
2022-08-14T11:14:59.119Z,55.32
2022-08-14T11:17:28.643Z,55.07
2022-08-14T11:20:01.326Z,54.78
2022-08-14T11:22:55.518Z,53.92
2022-08-14T11:25:18.659Z,55.00
2022-08-14T11:27:47.126Z,55.24
2022-08-14T11:30:51.587Z,54.56
2022-08-14T11:33:07.630Z,53.27
2022-08-14T11:35:44.351Z,53.74
2022-08-14T11:38:17.122Z,53.41
2022-08-14T11:40:47.001Z,54.29
2022-08-14T11:43:14.955Z,53.94
2022-08-14T11:45:48.036Z,53.11
2022-08-14T11:49:02.018Z,53.75
2022-08-14T11:51:31.034Z,54.99
2022-08-14T11:54:09.610Z,53.59
2022-08-14T11:56:41.636Z,52.76
2022-08-14T11:59:17.641Z,53.21
2022-08-14T12:01:48.665Z,52.16
2022-08-14T12:04:32.413Z,51.18
2022-08-14T12:07:00.919Z,55.74
2022-08-14T12:09:37.121Z,56.26
2022-08-14T12:12:35.963Z,57.81
2022-08-14T12:15:07.053Z,53.56
2022-08-14T12:17:47.546Z,54.50
2022-08-14T12:20:16.255Z,54.71
2022-08-14T12:22:57.447Z,52.98
2022-08-14T12:25:24.616Z,54.18
2022-08-14T12:27:54.778Z,54.78
2022-08-14T12:30:45.862Z,54.68
2022-08-14T12:33:33.461Z,58.59
2022-08-14T12:36:05.723Z,58.01
2022-08-14T12:38:35.886Z,58.98
2022-08-14T12:41:07.998Z,62.40
2022-08-14T12:43:46.221Z,61.36
2022-08-14T12:46:27.028Z,61.66
2022-08-14T12:48:57.963Z,61.70
2022-08-14T12:51:27.593Z,59.40
2022-08-14T12:53:56.681Z,60.09
2022-08-14T12:56:33.419Z,60.51
2022-08-14T12:59:04.741Z,59.00
2022-08-14T13:01:59.674Z,59.38
2022-08-14T13:04:22.954Z,58.52
2022-08-14T13:06:53.124Z,56.11
2022-08-14T13:09:20.978Z,54.14
2022-08-14T13:12:33.517Z,56.11
2022-08-14T13:14:50.999Z,56.57
2022-08-14T13:17:22.076Z,57.23
2022-08-14T13:19:50.132Z,59.90
2022-08-14T13:22:33.385Z,59.59
2022-08-14T13:25:06.970Z,61.51
2022-08-14T13:27:39.303Z,61.68
2022-08-14T13:30:14.378Z,55.04
2022-08-14T13:32:47.856Z,55.46
2022-08-14T13:35:17.710Z,59.80
2022-08-14T13:37:52.170Z,56.90
2022-08-14T13:40:20.922Z,58.32
2022-08-14T13:42:52.995Z,59.58
2022-08-14T13:45:33.791Z,57.80
2022-08-14T13:48:18.498Z,57.83
2022-08-14T13:51:01.895Z,56.24
2022-08-14T13:53:33.844Z,57.80
2022-08-14T13:56:02.231Z,59.12
2022-08-14T13:58:35.656Z,61.15
2022-08-14T14:01:04.554Z,57.49
2022-08-14T14:03:38.188Z,57.58
2022-08-14T14:06:07.098Z,53.80
2022-08-14T14:08:45.840Z,53.53
2022-08-14T14:11:16.922Z,56.25
2022-08-14T14:13:45.992Z,59.69
2022-08-14T14:16:26.299Z,58.49
2022-08-14T14:19:06.810Z,58.28
2022-08-14T14:21:36.564Z,60.83
2022-08-14T14:24:04.807Z,60.31
2022-08-14T14:26:33.174Z,61.37
2022-08-14T14:29:06.323Z,64.97
2022-08-14T14:31:38.877Z,65.17
2022-08-14T14:34:20.020Z,64.50
2022-08-14T14:36:56.907Z,64.84
2022-08-14T14:39:27.449Z,60.99
2022-08-14T14:41:59.605Z,63.80
2022-08-14T14:44:40.442Z,66.32
2022-08-14T14:47:12.520Z,66.16
2022-08-14T14:49:51.096Z,65.99
2022-08-14T14:52:27.033Z,64.15
2022-08-14T14:55:05.606Z,62.79
2022-08-14T14:57:35.148Z,66.68
2022-08-14T15:00:06.938Z,67.66
2022-08-14T15:02:53.386Z,66.49
2022-08-14T15:05:24.697Z,68.21
2022-08-14T15:07:54.963Z,66.45
2022-08-14T15:10:27.498Z,65.06
2022-08-14T15:13:00.194Z,64.89
2022-08-14T15:15:32.597Z,64.93
2022-08-14T15:17:59.989Z,66.42
2022-08-14T15:20:30.493Z,66.73
2022-08-14T15:23:11.745Z,66.39
2022-08-14T15:25:40.473Z,65.97
2022-08-14T15:28:12.720Z,65.82
2022-08-14T15:30:45.831Z,65.35
2022-08-14T15:33:37.861Z,64.58
2022-08-14T15:36:29.454Z,63.96
2022-08-14T15:38:57.183Z,63.47
2022-08-14T15:41:25.219Z,63.60
2022-08-14T15:43:53.222Z,63.70
2022-08-14T15:46:41.246Z,61.79
2022-08-14T15:49:10.161Z,60.03
2022-08-14T15:51:42.363Z,61.27
2022-08-14T15:54:11.410Z,62.57
2022-08-14T15:56:42.796Z,62.09
2022-08-14T15:59:10.503Z,62.92
2022-08-14T16:01:53.557Z,62.83
2022-08-14T16:04:22.817Z,60.62
2022-08-14T16:06:54.775Z,61.52
2022-08-14T16:09:23.169Z,61.43
2022-08-14T16:11:54.045Z,62.58
2022-08-14T16:14:21.782Z,61.33
2022-08-14T16:16:59.852Z,59.81
2022-08-14T16:19:31.494Z,60.29
2022-08-14T16:23:10.503Z,60.67
2022-08-14T16:24:59.817Z,58.72
2022-08-14T16:27:40.927Z,59.02
2022-08-14T16:30:20.711Z,60.36
2022-08-14T16:32:56.815Z,61.54
2022-08-14T16:38:29.361Z,61.28
2022-08-14T16:40:25.409Z,59.91
2022-08-14T16:41:22.857Z,61.56
2022-08-14T16:43:58.867Z,62.34
2022-08-14T16:46:28.809Z,62.60
2022-08-14T16:48:57.832Z,62.94
2022-08-14T16:51:26.175Z,63.77
2022-08-14T16:53:55.714Z,63.92
2022-08-14T16:56:25.508Z,62.59
2022-08-14T16:59:13.926Z,64.67
2022-08-14T17:02:00.322Z,65.74
2022-08-14T17:04:30.410Z,63.44
2022-08-14T17:07:00.907Z,61.13
2022-08-14T17:09:43.590Z,64.10
2022-08-14T17:12:28.570Z,64.70
2022-08-14T17:15:10.648Z,63.60
2022-08-14T17:17:40.619Z,63.96
2022-08-14T17:20:54.052Z,66.30
2022-08-14T17:23:11.391Z,63.87
2022-08-14T17:25:39.092Z,64.23
2022-08-14T17:28:50.593Z,66.41
2022-08-14T17:31:07.958Z,65.88
2022-08-14T17:33:40.562Z,66.49
2022-08-14T17:36:23.919Z,65.98
2022-08-14T17:39:00.122Z,65.21
2022-08-14T17:41:32.993Z,64.86
2022-08-14T17:44:13.101Z,65.23
2022-08-14T17:46:55.106Z,65.32
2022-08-14T17:49:27.204Z,65.24
2022-08-14T17:52:17.515Z,64.96
2022-08-14T17:54:53.034Z,64.90
2022-08-14T17:57:35.560Z,65.12
2022-08-14T18:00:18.034Z,65.13
2022-08-14T18:02:51.344Z,63.53
2022-08-14T18:05:22.849Z,64.04
2022-08-14T18:08:31.710Z,64.30
2022-08-14T18:10:56.076Z,64.01
2022-08-14T18:13:49.857Z,63.25
2022-08-14T18:16:20.404Z,62.16
2022-08-14T18:18:50.968Z,62.71
2022-08-14T18:21:39.967Z,64.49
2022-08-14T18:24:20.209Z,64.92
2022-08-14T18:27:01.583Z,63.97
2022-08-14T18:29:31.575Z,65.18
2022-08-14T18:31:59.907Z,66.45
2022-08-14T18:34:38.107Z,65.90
2022-08-14T18:37:21.070Z,63.66
2022-08-14T18:40:01.239Z,64.91
2022-08-14T18:42:30.517Z,65.84
2022-08-14T18:45:00.961Z,65.40
2022-08-14T18:47:32.678Z,64.69
2022-08-14T18:50:27.507Z,63.22
2022-08-14T18:53:06.870Z,63.67
2022-08-14T18:55:33.740Z,62.14
2022-08-14T18:58:00.978Z,61.46
2022-08-14T19:00:32.392Z,61.34
2022-08-14T19:03:04.504Z,59.86
2022-08-14T19:05:47.630Z,59.04
2022-08-14T19:08:25.318Z,59.99
2022-08-14T19:10:53.500Z,60.43
2022-08-14T19:13:44.424Z,59.92
2022-08-14T19:16:16.372Z,58.89
2022-08-14T19:19:00.335Z,61.26
2022-08-14T19:21:55.150Z,61.19
2022-08-14T19:24:34.329Z,60.62
2022-08-14T19:27:23.968Z,60.48
2022-08-14T19:30:19.791Z,61.92
2022-08-14T19:32:58.859Z,61.37
2022-08-14T19:35:49.467Z,62.22
2022-08-14T19:38:46.366Z,61.13
2022-08-14T19:41:16.115Z,60.92
2022-08-14T19:43:55.209Z,60.48
2022-08-14T19:46:39.565Z,62.16
2022-08-14T19:49:23.290Z,62.41
2022-08-14T19:52:02.919Z,62.67
2022-08-14T19:54:35.694Z,61.96
2022-08-14T19:57:04.234Z,61.78
2022-08-14T19:59:36.703Z,62.15
2022-08-14T20:02:29.904Z,61.43
2022-08-14T20:05:03.569Z,61.77
2022-08-14T20:08:09.132Z,61.85
2022-08-14T20:11:06.554Z,62.49
2022-08-14T20:13:32.181Z,62.91
2022-08-14T20:16:07.214Z,62.36
2022-08-14T20:18:49.174Z,62.34
2022-08-14T20:21:18.463Z,65.25
2022-08-14T20:23:48.291Z,63.80
2022-08-14T20:26:30.874Z,65.56
2022-08-14T20:29:04.640Z,64.25
2022-08-14T20:31:36.961Z,64.85
2022-08-14T20:34:19.266Z,65.42
2022-08-14T20:37:09.808Z,65.67
2022-08-14T20:39:53.693Z,64.98
2022-08-14T20:42:50.506Z,63.89
2022-08-14T20:45:18.936Z,62.58
2022-08-14T20:48:01.112Z,62.06
2022-08-14T20:50:30.049Z,64.38
2022-08-14T20:53:01.004Z,64.24
2022-08-14T20:55:41.446Z,63.26
2022-08-14T20:58:43.810Z,62.46
2022-08-14T21:01:19.769Z,62.70
2022-08-14T21:03:58.319Z,61.11
2022-08-14T21:06:25.350Z,61.67
2022-08-14T21:08:55.120Z,61.49
2022-08-14T21:11:24.597Z,60.75
2022-08-14T21:14:19.597Z,60.19
2022-08-14T21:16:58.602Z,60.45
2022-08-14T21:19:27.255Z,60.59
2022-08-14T21:21:56.397Z,60.41
2022-08-14T21:24:39.888Z,60.92
2022-08-14T21:27:20.072Z,62.20
2022-08-14T21:29:56.091Z,62.36
2022-08-14T21:32:50.548Z,60.70
2022-08-14T21:35:24.636Z,60.72
2022-08-14T21:37:52.440Z,59.87
2022-08-14T21:40:41.590Z,59.34
2022-08-14T21:43:14.874Z,59.12
2022-08-14T21:45:53.226Z,59.77
2022-08-14T21:48:32.595Z,60.63
2022-08-14T21:51:55.174Z,60.01
2022-08-14T21:53:58.773Z,59.36
2022-08-14T21:56:38.253Z,59.15
2022-08-14T21:59:10.208Z,58.79
2022-08-14T22:02:01.082Z,59.50
2022-08-14T22:04:31.937Z,59.70
2022-08-14T22:07:01.670Z,59.31
2022-08-14T22:09:36.386Z,60.29
2022-08-14T22:12:06.893Z,61.40
2022-08-14T22:14:43.512Z,61.55
2022-08-14T22:17:17.126Z,61.30
2022-08-14T22:19:54.183Z,62.14
2022-08-14T22:22:23.991Z,60.53
2022-08-14T22:24:59.754Z,60.62
2022-08-14T22:27:29.383Z,60.70
2022-08-14T22:29:58.355Z,62.50
2022-08-14T22:32:35.340Z,62.29
2022-08-14T22:35:12.623Z,63.23
2022-08-14T22:37:44.571Z,63.04
2022-08-14T22:40:50.993Z,62.99
2022-08-14T22:43:07.927Z,63.57
2022-08-14T22:45:36.236Z,63.36
2022-08-14T22:48:03.871Z,61.86
2022-08-14T22:50:33.563Z,64.17
2022-08-14T22:53:00.784Z,63.20
2022-08-14T22:55:27.635Z,62.12
2022-08-14T22:57:54.328Z,62.26
2022-08-14T23:00:25.733Z,61.34
2022-08-14T23:03:00.518Z,62.01
2022-08-14T23:05:34.157Z,62.87
2022-08-14T23:09:00.187Z,61.85
2022-08-14T23:10:55.043Z,62.66
2022-08-14T23:13:21.888Z,63.08
2022-08-14T23:15:50.748Z,62.88
2022-08-14T23:18:17.426Z,62.83
2022-08-14T23:20:48.981Z,62.45
2022-08-14T23:23:22.429Z,62.95
2022-08-14T23:25:58.948Z,62.43
2022-08-14T23:28:34.556Z,63.61
2022-08-14T23:31:34.426Z,63.02
2022-08-14T23:34:07.093Z,63.02
2022-08-14T23:36:53.622Z,62.09
2022-08-14T23:39:30.016Z,62.60
2022-08-14T23:42:02.355Z,62.06
2022-08-14T23:44:35.273Z,61.15
2022-08-14T23:47:11.522Z,61.77
2022-08-14T23:50:03.443Z,63.03
2022-08-14T23:52:57.426Z,62.68
2022-08-14T23:55:27.564Z,61.56
2022-08-14T23:57:57.905Z,61.69
